createdAt,value
2022-10-09T00:01:33.396Z,42.17
2022-10-09T00:04:01.459Z,40.85
2022-10-09T00:06:32.647Z,44.53
2022-10-09T00:09:04.588Z,41.63
2022-10-09T00:11:35.232Z,45.60
2022-10-09T00:14:06.122Z,44.10
2022-10-09T00:16:37.276Z,45.60
2022-10-09T00:19:04.742Z,47.88
2022-10-09T00:21:34.966Z,52.00
2022-10-09T00:24:05.228Z,48.40
2022-10-09T00:26:33.834Z,44.88
2022-10-09T00:29:02.190Z,49.25
2022-10-09T00:31:32.161Z,50.33
2022-10-09T00:34:00.382Z,50.58
2022-10-09T00:36:28.441Z,50.65
2022-10-09T00:38:56.801Z,50.33
2022-10-09T00:41:27.863Z,48.67
2022-10-09T00:44:25.936Z,51.92
2022-10-09T00:46:53.763Z,53.30
2022-10-09T00:49:30.543Z,53.25
2022-10-09T00:52:03.218Z,51.70
2022-10-09T00:54:34.144Z,53.33
2022-10-09T00:57:02.112Z,53.35
2022-10-09T00:59:31.235Z,49.25
2022-10-09T01:02:00.115Z,52.78
2022-10-09T01:04:28.359Z,52.95
2022-10-09T01:07:24.788Z,53.80
2022-10-09T01:10:06.069Z,49.80
2022-10-09T01:12:50.809Z,52.20
2022-10-09T01:15:25.059Z,50.47
2022-10-09T01:18:05.278Z,51.13
2022-10-09T01:20:41.832Z,52.95
2022-10-09T01:23:21.291Z,50.67
2022-10-09T01:26:14.522Z,51.30
2022-10-09T01:28:46.004Z,53.05
2022-10-09T01:31:15.635Z,56.40
2022-10-09T01:33:43.835Z,54.72
2022-10-09T01:36:11.909Z,50.97
2022-10-09T01:38:41.546Z,54.08
2022-10-09T01:41:09.874Z,54.38
2022-10-09T01:43:37.553Z,53.70
2022-10-09T01:46:19.771Z,52.83
2022-10-09T01:49:11.994Z,52.55
2022-10-09T01:51:54.154Z,52.58
2022-10-09T01:54:35.278Z,51.67
2022-10-09T01:57:05.614Z,51.20
2022-10-09T01:59:39.759Z,53.42
2022-10-09T02:02:08.935Z,50.40
2022-10-09T02:04:41.442Z,54.47
2022-10-09T02:07:09.690Z,51.47
2022-10-09T02:09:39.971Z,51.97
2022-10-09T02:12:10.056Z,51.33
2022-10-09T02:14:37.801Z,53.17
2022-10-09T02:17:13.115Z,55.78
2022-10-09T02:19:59.120Z,53.25
2022-10-09T02:22:30.338Z,50.65
2022-10-09T02:25:01.749Z,48.83
2022-10-09T02:27:29.491Z,51.60
2022-10-09T02:29:59.035Z,51.88
2022-10-09T02:32:26.781Z,53.60
2022-10-09T02:34:54.118Z,53.03
2022-10-09T02:37:21.409Z,50.30
2022-10-09T02:39:49.282Z,51.03
2022-10-09T02:42:18.615Z,54.53
2022-10-09T02:44:47.558Z,55.60
2022-10-09T02:47:18.536Z,49.95
2022-10-09T02:49:45.955Z,52.42
2022-10-09T02:52:14.785Z,52.17
2022-10-09T02:54:42.636Z,54.20
2022-10-09T02:57:11.802Z,55.55
2022-10-09T02:59:40.780Z,55.22
2022-10-09T03:02:09.261Z,54.63
2022-10-09T03:04:37.479Z,55.63
2022-10-09T03:07:04.848Z,52.13
2022-10-09T03:09:33.836Z,48.30
2022-10-09T03:12:02.903Z,51.78
2022-10-09T03:14:31.987Z,50.97
2022-10-09T03:16:59.661Z,50.22
2022-10-09T03:19:27.020Z,52.78
2022-10-09T03:21:56.967Z,51.67
2022-10-09T03:24:24.762Z,50.58
2022-10-09T03:26:52.799Z,50.65
2022-10-09T03:29:20.571Z,50.03
2022-10-09T03:31:53.393Z,50.70
2022-10-09T03:34:25.048Z,51.80
2022-10-09T03:36:56.993Z,49.72
2022-10-09T03:39:28.364Z,49.15
2022-10-09T03:41:57.126Z,49.60
2022-10-09T03:44:24.580Z,51.10
2022-10-09T03:46:52.850Z,48.88
2022-10-09T03:49:21.477Z,49.60
2022-10-09T03:51:50.282Z,48.55
2022-10-09T03:54:17.928Z,50.42
2022-10-09T03:56:45.589Z,50.10
2022-10-09T03:59:13.011Z,48.67
2022-10-09T04:01:41.018Z,51.55
2022-10-09T04:04:10.786Z,48.80
2022-10-09T04:06:42.233Z,49.83
2022-10-09T04:09:10.747Z,50.88
2022-10-09T04:11:40.037Z,47.67
2022-10-09T04:14:09.254Z,50.65
2022-10-09T04:16:39.215Z,53.78
2022-10-09T04:19:07.882Z,49.63
2022-10-09T04:21:35.823Z,51.50
2022-10-09T04:24:04.061Z,51.97
2022-10-09T04:26:31.430Z,49.83
2022-10-09T04:28:59.519Z,49.55
2022-10-09T04:31:27.301Z,50.47
2022-10-09T04:33:55.745Z,49.83
2022-10-09T04:36:24.128Z,47.78
2022-10-09T04:38:53.180Z,49.00
2022-10-09T04:41:21.242Z,49.08
2022-10-09T04:43:48.836Z,49.40
2022-10-09T04:46:17.470Z,46.72
2022-10-09T04:48:46.883Z,50.00
2022-10-09T04:51:15.544Z,50.20
2022-10-09T04:53:45.435Z,50.38
2022-10-09T04:56:18.450Z,52.22
2022-10-09T04:58:47.452Z,48.10
2022-10-09T05:01:24.418Z,50.13
2022-10-09T05:03:53.100Z,51.88
2022-10-09T05:06:21.949Z,51.90
2022-10-09T05:08:50.206Z,51.35
2022-10-09T05:11:22.075Z,52.83
2022-10-09T05:13:52.323Z,53.08
2022-10-09T05:16:32.108Z,50.70
2022-10-09T05:19:00.920Z,50.65
2022-10-09T05:21:29.414Z,49.70
2022-10-09T05:23:57.528Z,51.67
2022-10-09T05:26:26.593Z,50.20
2022-10-09T05:28:54.665Z,48.17
2022-10-09T05:31:27.941Z,48.33
2022-10-09T05:33:58.709Z,49.47
2022-10-09T05:36:26.135Z,47.22
2022-10-09T05:38:53.455Z,49.72
2022-10-09T05:41:21.064Z,44.05
2022-10-09T05:43:49.996Z,44.13
2022-10-09T05:46:23.518Z,46.58
2022-10-09T05:48:58.983Z,43.47
2022-10-09T05:51:32.372Z,45.75
2022-10-09T05:54:02.080Z,44.53
2022-10-09T05:56:31.389Z,43.83
2022-10-09T05:59:07.728Z,44.30
2022-10-09T06:01:41.507Z,43.80
2022-10-09T06:04:14.202Z,43.38
2022-10-09T06:06:42.623Z,42.55
2022-10-09T06:09:11.261Z,42.45
2022-10-09T06:11:40.278Z,43.25
2022-10-09T06:14:09.963Z,44.92
2022-10-09T06:16:40.362Z,44.60
2022-10-09T06:19:10.421Z,55.70
2022-10-09T06:21:38.702Z,63.60
2022-10-09T06:24:07.186Z,44.47
2022-10-09T06:26:35.155Z,57.60
2022-10-09T06:29:03.402Z,47.33
2022-10-09T06:31:33.327Z,45.90
2022-10-09T06:34:03.316Z,44.75
2022-10-09T06:36:33.608Z,43.33
2022-10-09T06:39:05.413Z,42.78
2022-10-09T06:41:34.629Z,46.13
2022-10-09T06:44:16.687Z,46.97
2022-10-09T06:46:46.467Z,44.13
2022-10-09T06:49:13.827Z,44.03
2022-10-09T06:51:41.438Z,44.13
2022-10-09T06:54:17.642Z,43.33
2022-10-09T06:56:47.313Z,43.60
2022-10-09T06:59:15.892Z,44.15
2022-10-09T07:01:50.110Z,43.80
2022-10-09T07:04:25.370Z,41.75
2022-10-09T07:06:55.831Z,39.72
2022-10-09T07:09:42.738Z,38.42
2022-10-09T07:12:10.687Z,36.33
2022-10-09T07:14:38.131Z,37.13
2022-10-09T07:17:06.054Z,38.90
2022-10-09T07:19:33.475Z,35.50
2022-10-09T07:22:00.854Z,35.03
2022-10-09T07:24:28.759Z,32.70
2022-10-09T07:26:57.625Z,32.80
2022-10-09T07:29:25.427Z,37.38
2022-10-09T07:31:54.496Z,32.92
2022-10-09T07:34:23.600Z,34.03
2022-10-09T07:36:52.603Z,34.72
2022-10-09T07:39:26.026Z,33.80
2022-10-09T07:41:59.213Z,33.65
2022-10-09T07:44:31.823Z,32.42
2022-10-09T07:47:02.327Z,33.88
2022-10-09T07:49:33.381Z,35.60
2022-10-09T07:52:02.316Z,34.35
2022-10-09T07:54:29.708Z,33.65
2022-10-09T07:56:57.500Z,32.28
2022-10-09T07:59:24.902Z,32.97
2022-10-09T08:01:52.262Z,31.55
2022-10-09T08:04:19.907Z,30.33
2022-10-09T08:06:47.313Z,29.45
2022-10-09T08:09:20.143Z,27.67
2022-10-09T08:11:48.267Z,31.45
2022-10-09T08:14:20.541Z,29.02
2022-10-09T08:16:49.670Z,28.17
2022-10-09T08:19:41.141Z,27.25
2022-10-09T08:22:08.833Z,28.95
2022-10-09T08:24:36.854Z,27.52
2022-10-09T08:27:04.348Z,27.30
2022-10-09T08:29:34.591Z,27.15
2022-10-09T08:32:04.210Z,29.67
2022-10-09T08:34:31.558Z,28.38
2022-10-09T08:36:58.985Z,28.13
2022-10-09T08:39:31.127Z,28.73
2022-10-09T08:42:03.625Z,38.17
2022-10-09T08:44:38.350Z,27.33
2022-10-09T08:47:29.985Z,28.60
2022-10-09T08:50:10.132Z,38.50
2022-10-09T08:53:00.346Z,33.00
2022-10-09T08:55:56.561Z,37.28
2022-10-09T08:58:30.530Z,30.83
2022-10-09T09:01:25.245Z,29.10
2022-10-09T09:04:28.152Z,27.73
2022-10-09T09:07:23.470Z,25.30
2022-10-09T09:12:29.538Z,26.20
2022-10-09T09:15:22.420Z,28.13
2022-10-09T09:18:08.693Z,30.23
2022-10-09T09:21:05.694Z,31.75
2022-10-09T09:23:41.185Z,27.45
2022-10-09T09:26:16.370Z,29.15
2022-10-09T09:28:44.869Z,29.10
2022-10-09T09:31:27.485Z,30.75
2022-10-09T09:34:09.702Z,28.40
2022-10-09T09:36:47.703Z,27.73
2022-10-09T09:40:08.150Z,27.15
2022-10-09T09:42:16.232Z,27.15
2022-10-09T09:45:08.680Z,27.73
2022-10-09T09:47:47.597Z,26.48
2022-10-09T09:50:47.043Z,26.73
2022-10-09T09:53:46.674Z,26.27
2022-10-09T09:56:19.690Z,30.60
2022-10-09T10:01:31.117Z,27.50
2022-10-09T10:04:19.251Z,25.98
2022-10-09T10:06:55.653Z,30.05
2022-10-09T10:09:37.060Z,28.50
2022-10-09T10:12:08.147Z,27.08
2022-10-09T10:14:38.655Z,26.63
2022-10-09T10:17:26.923Z,30.25
2022-10-09T10:19:56.843Z,27.27
2022-10-09T10:22:29.852Z,28.30
2022-10-09T10:25:04.455Z,28.90
2022-10-09T10:27:44.096Z,27.98
2022-10-09T10:30:18.394Z,25.90
2022-10-09T10:33:14.774Z,28.77
2022-10-09T10:35:44.662Z,26.60
2022-10-09T10:38:30.003Z,26.55
2022-10-09T10:41:35.459Z,26.60
2022-10-09T10:45:11.201Z,25.08
2022-10-09T10:47:52.261Z,24.83
2022-10-09T10:50:28.510Z,25.75
2022-10-09T10:53:50.736Z,23.73
2022-10-09T10:56:53.822Z,25.02
2022-10-09T10:59:48.928Z,23.42
2022-10-09T11:02:58.888Z,22.35
2022-10-09T11:06:09.607Z,23.27
2022-10-09T11:08:54.216Z,24.23
2022-10-09T11:11:40.994Z,23.92
2022-10-09T11:14:38.559Z,22.63
2022-10-09T11:17:39.216Z,24.05
2022-10-09T11:20:33.093Z,23.63
2022-10-09T11:23:30.152Z,21.58
2022-10-09T11:29:07.234Z,22.67
2022-10-09T11:31:43.573Z,22.15
2022-10-09T11:34:39.719Z,21.60
2022-10-09T11:37:26.721Z,21.92
2022-10-09T11:39:58.425Z,21.23
2022-10-09T11:42:27.913Z,21.75
2022-10-09T11:45:34.752Z,21.52
2022-10-09T11:48:41.180Z,20.85
2022-10-09T11:51:58.735Z,21.38
2022-10-09T11:54:33.798Z,20.38
2022-10-09T11:57:09.603Z,21.42
2022-10-09T11:59:45.433Z,20.77
2022-10-09T12:02:27.648Z,21.17
2022-10-09T12:04:57.861Z,19.95
2022-10-09T12:07:34.263Z,22.50
2022-10-09T12:10:22.185Z,20.80
2022-10-09T12:13:06.483Z,20.05
2022-10-09T12:15:46.532Z,20.38
2022-10-09T12:18:35.091Z,20.05
2022-10-09T12:21:25.894Z,20.67
2022-10-09T12:23:59.797Z,19.30
2022-10-09T12:26:30.480Z,18.05
2022-10-09T12:29:05.285Z,18.85
2022-10-09T12:31:39.021Z,19.02
2022-10-09T12:34:31.718Z,17.52
2022-10-09T12:37:43.667Z,16.63
2022-10-09T12:40:22.047Z,17.33
2022-10-09T12:42:53.074Z,15.68
2022-10-09T12:45:30.873Z,17.02
2022-10-09T12:48:13.634Z,17.20
2022-10-09T12:50:46.713Z,17.35
2022-10-09T12:53:30.555Z,18.13
2022-10-09T12:56:12.852Z,19.58
2022-10-09T12:58:45.089Z,17.85
2022-10-09T13:01:24.944Z,18.52
2022-10-09T13:04:03.667Z,18.13
2022-10-09T13:07:19.759Z,17.55
2022-10-09T13:09:48.554Z,17.88
2022-10-09T13:12:52.664Z,19.00
2022-10-09T13:15:38.101Z,18.58
2022-10-09T13:18:24.473Z,19.85
2022-10-09T13:21:20.390Z,18.67
2022-10-09T13:23:48.607Z,19.60
2022-10-09T13:26:25.018Z,20.20
2022-10-09T13:29:03.978Z,19.73
2022-10-09T13:32:10.089Z,20.17
2022-10-09T13:34:47.728Z,21.25
2022-10-09T13:37:20.485Z,19.95
2022-10-09T13:39:58.103Z,19.27
2022-10-09T13:42:33.201Z,19.60
2022-10-09T13:45:02.661Z,19.83
2022-10-09T13:47:34.114Z,20.42
2022-10-09T13:50:03.966Z,18.50
2022-10-09T13:52:45.020Z,20.08
2022-10-09T13:55:18.718Z,18.90
2022-10-09T13:57:59.840Z,18.75
2022-10-09T14:00:30.553Z,18.25
2022-10-09T14:03:04.590Z,18.52
2022-10-09T14:05:32.269Z,18.02
2022-10-09T14:08:01.611Z,17.02
2022-10-09T14:10:32.010Z,17.67
2022-10-09T14:13:05.338Z,16.30
2022-10-09T14:15:34.322Z,16.35
2022-10-09T14:18:06.696Z,15.27
2022-10-09T14:20:38.528Z,15.10
2022-10-09T14:23:11.819Z,13.48
2022-10-09T14:25:45.660Z,21.08
2022-10-09T14:28:21.301Z,14.40
2022-10-09T14:30:50.563Z,13.18
2022-10-09T14:33:18.996Z,12.55
2022-10-09T14:35:56.997Z,13.55
2022-10-09T14:38:54.874Z,12.23
2022-10-09T14:41:26.123Z,12.77
2022-10-09T14:44:02.500Z,12.35
2022-10-09T14:46:34.042Z,13.38
2022-10-09T14:49:07.700Z,11.93
2022-10-09T14:51:42.220Z,12.75
2022-10-09T14:56:44.019Z,11.57
2022-10-09T14:59:14.995Z,12.48
2022-10-09T15:01:45.252Z,13.60
2022-10-09T15:04:21.871Z,12.27
2022-10-09T15:06:54.822Z,14.57
2022-10-09T15:09:30.802Z,13.65
2022-10-09T15:12:24.595Z,13.57
2022-10-09T15:14:54.086Z,13.23
2022-10-09T15:17:26.513Z,16.20
2022-10-09T15:20:31.327Z,15.80
2022-10-09T15:23:04.188Z,16.40
2022-10-09T15:25:36.650Z,20.42
2022-10-09T15:28:10.218Z,20.92
2022-10-09T15:30:45.312Z,19.55
2022-10-09T15:33:13.917Z,20.95
2022-10-09T15:35:45.008Z,19.25
2022-10-09T15:38:24.477Z,18.95
2022-10-09T15:41:07.922Z,20.58
2022-10-09T15:43:43.665Z,17.60
2022-10-09T15:46:15.204Z,18.85
2022-10-09T15:48:46.300Z,23.00
2022-10-09T15:51:21.170Z,27.10
2022-10-09T15:54:01.271Z,23.50
2022-10-09T15:56:48.127Z,32.08
2022-10-09T15:59:20.429Z,32.78
2022-10-09T16:01:51.591Z,25.10
2022-10-09T16:04:21.681Z,32.55
2022-10-09T16:06:54.116Z,40.53
2022-10-09T16:09:34.101Z,42.25
2022-10-09T16:12:08.308Z,32.03
2022-10-09T16:14:44.677Z,27.27
2022-10-09T16:17:40.486Z,23.63
2022-10-09T16:20:16.410Z,23.80
2022-10-09T16:22:47.910Z,23.77
2022-10-09T16:25:28.790Z,33.33
2022-10-09T16:28:07.764Z,29.13
2022-10-09T16:30:48.872Z,32.95
2022-10-09T16:33:24.449Z,24.40
2022-10-09T16:36:46.362Z,35.30
2022-10-09T16:39:19.028Z,24.33
2022-10-09T16:41:49.587Z,35.60
2022-10-09T16:44:19.580Z,41.50
2022-10-09T16:46:49.709Z,30.30
2022-10-09T16:49:24.161Z,34.00
2022-10-09T16:51:54.149Z,50.70
2022-10-09T16:54:24.467Z,58.95
2022-10-09T16:56:54.283Z,85.88
2022-10-09T16:59:25.937Z,76.30
2022-10-09T17:02:09.825Z,56.80
2022-10-09T17:04:38.931Z,53.75
2022-10-09T17:07:12.372Z,34.10
2022-10-09T17:09:45.750Z,36.58
2022-10-09T17:12:39.318Z,34.20
2022-10-09T17:15:19.233Z,28.67
2022-10-09T17:17:54.133Z,31.92
2022-10-09T17:20:29.892Z,33.20
2022-10-09T17:23:05.197Z,33.67
2022-10-09T17:25:43.547Z,33.28
2022-10-09T17:28:12.309Z,77.35
2022-10-09T17:30:43.275Z,60.42
2022-10-09T17:33:16.322Z,40.83
2022-10-09T17:35:49.205Z,59.47
2022-10-09T17:38:21.011Z,149.13
2022-10-09T17:40:52.103Z,131.80
2022-10-09T17:43:34.329Z,160.85
2022-10-09T17:46:08.179Z,74.18
2022-10-09T17:48:45.828Z,46.20
2022-10-09T17:51:20.605Z,33.75
2022-10-09T17:54:01.498Z,32.65
2022-10-09T17:56:31.687Z,26.67
2022-10-09T17:59:03.855Z,25.40
2022-10-09T18:01:32.144Z,27.95
2022-10-09T18:04:05.674Z,29.38
2022-10-09T18:06:36.986Z,205.48
2022-10-09T18:09:08.156Z,210.02
2022-10-09T18:12:01.736Z,185.65
2022-10-09T18:14:32.423Z,104.78
2022-10-09T18:17:34.782Z,41.78
2022-10-09T18:20:06.445Z,40.17
2022-10-09T18:22:48.900Z,40.13
2022-10-09T18:25:19.691Z,36.50
2022-10-09T18:27:51.739Z,32.72
2022-10-09T18:30:27.900Z,31.00
2022-10-09T18:33:01.677Z,30.17
2022-10-09T18:35:39.434Z,27.50
2022-10-09T18:38:10.729Z,29.77
2022-10-09T18:40:45.831Z,30.52
2022-10-09T18:43:13.934Z,30.35
2022-10-09T18:45:49.641Z,29.67
2022-10-09T18:48:43.585Z,28.98
2022-10-09T18:51:17.759Z,30.92
2022-10-09T18:53:54.761Z,32.33
2022-10-09T18:56:24.660Z,32.15
2022-10-09T18:58:57.668Z,30.65
2022-10-09T19:01:32.752Z,31.38
2022-10-09T19:04:05.068Z,33.55
2022-10-09T19:06:33.840Z,29.25
2022-10-09T19:09:22.840Z,25.58
2022-10-09T19:11:50.787Z,29.73
2022-10-09T19:14:22.989Z,27.02
2022-10-09T19:16:56.573Z,30.52
2022-10-09T19:19:31.131Z,30.65
2022-10-09T19:22:00.566Z,30.33
2022-10-09T19:24:34.170Z,30.00
2022-10-09T19:27:03.361Z,29.45
2022-10-09T19:29:46.019Z,28.13
2022-10-09T19:32:19.195Z,30.92
2022-10-09T19:34:52.836Z,31.08
2022-10-09T19:37:28.897Z,30.65
2022-10-09T19:40:01.261Z,36.28
2022-10-09T19:45:03.868Z,32.47
2022-10-09T19:47:33.991Z,29.65
2022-10-09T19:50:06.836Z,32.15
2022-10-09T19:52:38.681Z,33.97
2022-10-09T19:55:08.447Z,37.13
2022-10-09T19:57:40.588Z,44.75
2022-10-09T20:00:35.079Z,45.58
2022-10-09T20:03:03.864Z,42.95
2022-10-09T20:05:35.655Z,34.42
2022-10-09T20:08:15.439Z,32.22
2022-10-09T20:11:36.265Z,30.98
2022-10-09T20:14:07.452Z,31.10
2022-10-09T20:16:39.408Z,32.63
2022-10-09T20:19:08.994Z,34.28
2022-10-09T20:21:38.192Z,35.28
2022-10-09T20:24:10.199Z,39.30
2022-10-09T20:26:45.865Z,40.63
2022-10-09T20:29:21.650Z,38.30
2022-10-09T20:31:50.858Z,38.20
2022-10-09T20:34:20.745Z,37.17
2022-10-09T20:36:49.365Z,37.65
2022-10-09T20:39:21.467Z,37.45
2022-10-09T20:41:52.719Z,37.67
2022-10-09T20:44:25.947Z,43.60
2022-10-09T20:46:57.045Z,39.83
2022-10-09T20:49:25.082Z,41.03
2022-10-09T20:51:57.024Z,41.58
2022-10-09T20:54:25.720Z,37.13
2022-10-09T20:56:58.450Z,39.33
2022-10-09T20:59:30.204Z,39.67
2022-10-09T21:02:07.547Z,39.97
2022-10-09T21:04:41.624Z,37.67
2022-10-09T21:07:11.521Z,39.25
2022-10-09T21:09:40.322Z,41.00
2022-10-09T21:12:09.680Z,41.08
2022-10-09T21:14:40.057Z,40.80
2022-10-09T21:17:12.290Z,41.15
2022-10-09T21:19:41.309Z,40.45
2022-10-09T21:22:12.406Z,40.20
2022-10-09T21:24:42.453Z,43.50
2022-10-09T21:27:13.912Z,38.45
2022-10-09T21:29:43.570Z,39.47
2022-10-09T21:32:15.717Z,42.78
2022-10-09T21:34:45.499Z,41.85
2022-10-09T21:37:21.427Z,39.25
2022-10-09T21:39:54.268Z,40.97
2022-10-09T21:42:25.259Z,40.17
2022-10-09T21:44:58.495Z,41.13
2022-10-09T21:47:27.541Z,37.38
2022-10-09T21:49:59.635Z,40.00
2022-10-09T21:52:28.872Z,40.42
2022-10-09T21:55:01.045Z,40.88
2022-10-09T21:57:30.257Z,49.60
2022-10-09T21:59:58.355Z,47.25
2022-10-09T22:02:31.691Z,44.78
2022-10-09T22:05:07.382Z,45.20
2022-10-09T22:07:36.747Z,41.72
2022-10-09T22:10:08.378Z,42.65
2022-10-09T22:12:38.598Z,42.05
2022-10-09T22:15:12.401Z,43.92
2022-10-09T22:17:43.069Z,42.75
2022-10-09T22:20:15.612Z,41.03
2022-10-09T22:22:46.332Z,44.92
2022-10-09T22:25:23.515Z,46.92
2022-10-09T22:27:53.750Z,48.97
2022-10-09T22:30:25.827Z,49.60
2022-10-09T22:32:56.391Z,48.42
2022-10-09T22:35:26.363Z,52.03
2022-10-09T22:37:58.569Z,47.13
2022-10-09T22:40:27.499Z,49.08
2022-10-09T22:42:59.651Z,47.28
2022-10-09T22:45:35.595Z,44.47
2022-10-09T22:48:05.632Z,49.72
2022-10-09T22:50:37.678Z,47.15
2022-10-09T22:53:08.306Z,47.85
2022-10-09T22:55:41.807Z,50.25
2022-10-09T22:58:13.502Z,46.80
2022-10-09T23:00:42.507Z,48.00
2022-10-09T23:03:12.449Z,48.17
2022-10-09T23:05:44.775Z,48.13
2022-10-09T23:08:17.281Z,47.97
2022-10-09T23:10:50.692Z,49.33
2022-10-09T23:13:21.990Z,43.65
2022-10-09T23:15:51.292Z,42.65
2022-10-09T23:18:19.296Z,45.88
2022-10-09T23:20:52.489Z,45.70
2022-10-09T23:23:29.829Z,41.47
2022-10-09T23:26:02.464Z,43.63
2022-10-09T23:28:30.864Z,43.95
2022-10-09T23:31:09.460Z,43.70
2022-10-09T23:33:45.605Z,42.67
2022-10-09T23:36:20.797Z,43.67
2022-10-09T23:38:55.594Z,46.40
2022-10-09T23:41:26.794Z,45.47
2022-10-09T23:43:58.583Z,45.45
2022-10-09T23:46:32.360Z,45.83
2022-10-09T23:49:02.683Z,45.65
2022-10-09T23:51:32.536Z,49.28
2022-10-09T23:54:01.598Z,50.30
2022-10-09T23:56:38.318Z,44.55
2022-10-09T23:59:12.999Z,44.25
